createdAt,value
2018-01-28T00:00:43.854Z,102345.91
2018-01-28T00:03:13.745Z,102346.27
2018-01-28T00:05:42.858Z,102341.12
2018-01-28T00:08:12.725Z,102344.16
2018-01-28T00:10:41.871Z,102341.02
2018-01-28T00:13:10.947Z,102336.25
2018-01-28T00:15:40.066Z,102345.19
2018-01-28T00:18:09.171Z,102351.97
2018-01-28T00:20:38.304Z,102351.73
2018-01-28T00:23:07.385Z,102351.73
2018-01-28T00:25:36.518Z,102356.50
2018-01-28T00:28:06.443Z,102364.21
2018-01-28T00:30:35.533Z,102363.39
2018-01-28T00:33:04.619Z,102373.24
2018-01-28T00:35:33.721Z,102366.83
2018-01-28T00:38:02.839Z,102367.72
2018-01-28T00:40:32.701Z,102371.59
2018-01-28T00:43:01.821Z,102369.89
2018-01-28T00:45:30.893Z,102364.12
2018-01-28T00:48:00.038Z,102364.96
2018-01-28T00:50:29.118Z,102363.27
2018-01-28T00:52:58.308Z,102371.73
2018-01-28T00:55:27.381Z,102375.64
2018-01-28T00:57:56.474Z,102367.31
2018-01-28T01:00:26.358Z,102369.86
2018-01-28T01:02:55.463Z,102371.22
2018-01-28T01:05:24.587Z,102370.45
2018-01-28T01:07:53.686Z,102379.85
2018-01-28T01:10:22.809Z,102378.19
2018-01-28T01:12:51.913Z,102378.59
2018-01-28T01:15:21.043Z,102374.73
2018-01-28T01:17:50.133Z,102375.27
2018-01-28T01:20:19.225Z,102376.31
2018-01-28T01:22:48.355Z,102375.18
2018-01-28T01:25:17.474Z,102373.38
2018-01-28T01:27:46.572Z,102370.79
2018-01-28T01:30:15.676Z,102365.28
2018-01-28T01:32:44.778Z,102365.75
2018-01-28T01:35:13.885Z,102365.83
2018-01-28T01:37:43.768Z,102362.33
2018-01-28T01:40:12.870Z,102358.92
2018-01-28T01:42:41.965Z,102366.66
2018-01-28T01:45:11.837Z,102364.41
2018-01-28T01:47:40.940Z,102357.08
2018-01-28T01:50:10.042Z,102353.13
2018-01-28T01:52:39.148Z,102350.28
2018-01-28T01:55:08.254Z,102351.48
2018-01-28T01:57:37.376Z,102351.03
2018-01-28T02:00:06.499Z,102347.66
2018-01-28T02:02:35.609Z,102341.25
2018-01-28T02:05:04.700Z,102342.67
2018-01-28T02:07:33.806Z,102337.08
2018-01-28T02:10:02.890Z,102342.59
2018-01-28T02:12:32.013Z,102337.88
2018-01-28T02:15:01.126Z,102330.48
2018-01-28T02:17:31.010Z,102337.96
2018-01-28T02:20:00.877Z,102338.37
2018-01-28T02:22:29.981Z,102325.83
2018-01-28T02:24:59.102Z,102322.41
2018-01-28T02:27:28.380Z,102329.95
2018-01-28T02:29:58.261Z,102329.45
2018-01-28T02:32:27.353Z,102321.14
2018-01-28T02:34:56.478Z,102320.48
2018-01-28T02:37:25.571Z,102320.02
2018-01-28T02:39:54.671Z,102318.17
2018-01-28T02:42:23.774Z,102316.54
2018-01-28T02:44:52.907Z,102313.09
2018-01-28T02:47:22.010Z,102320.31
2018-01-28T02:49:51.885Z,102312.09
2018-01-28T02:52:21.754Z,102312.09
2018-01-28T02:54:50.879Z,102311.10
2018-01-28T02:57:19.993Z,102313.59
2018-01-28T02:59:49.110Z,102317.39
2018-01-28T03:02:18.212Z,102314.84
2018-01-28T03:04:47.310Z,102307.96
2018-01-28T03:07:16.429Z,102303.63
2018-01-28T03:09:45.533Z,102303.17
2018-01-28T03:12:14.618Z,102302.77
2018-01-28T03:14:43.713Z,102303.59
2018-01-28T03:17:12.850Z,102305.66
2018-01-28T03:19:41.972Z,102312.84
2018-01-28T03:22:11.057Z,102321.01
2018-01-28T03:24:40.996Z,102327.64
2018-01-28T03:27:10.817Z,102323.62
2018-01-28T03:29:39.925Z,102318.24
2018-01-28T03:32:09.229Z,102314.70
2018-01-28T03:34:38.354Z,102313.12
2018-01-28T03:37:07.454Z,102308.44
2018-01-28T03:39:36.560Z,102313.52
2018-01-28T03:42:05.661Z,102314.52
2018-01-28T03:44:34.761Z,102313.04
2018-01-28T03:47:03.873Z,102322.73
2018-01-28T03:49:32.981Z,102321.07
2018-01-28T03:52:02.077Z,102313.88
2018-01-28T03:54:31.209Z,102315.24
2018-01-28T03:57:00.293Z,102311.67
2018-01-28T03:59:29.413Z,102311.22
2018-01-28T04:01:58.497Z,102324.02
2018-01-28T04:04:28.381Z,102318.39
2018-01-28T04:06:57.499Z,102317.42
2018-01-28T04:09:26.598Z,102312.70
2018-01-28T04:11:55.749Z,102316.56
2018-01-28T04:14:25.610Z,102307.08
2018-01-28T04:16:54.733Z,102307.42
2018-01-28T04:19:23.851Z,102302.65
2018-01-28T04:21:52.962Z,102300.13
2018-01-28T04:24:22.814Z,102301.77
2018-01-28T04:26:52.719Z,102307.25
2018-01-28T04:29:21.803Z,102317.97
2018-01-28T04:31:50.921Z,102311.91
2018-01-28T04:34:20.014Z,102314.51
2018-01-28T04:36:49.169Z,102310.22
2018-01-28T04:39:18.264Z,102306.73
2018-01-28T04:41:47.361Z,102307.98
2018-01-28T04:44:16.498Z,102310.56
2018-01-28T04:46:45.577Z,102299.84
2018-01-28T04:49:14.694Z,102306.62
2018-01-28T04:51:43.794Z,102311.37
2018-01-28T04:54:12.902Z,102306.25
2018-01-28T04:56:42.774Z,102295.67
2018-01-28T04:59:12.661Z,102302.91
2018-01-28T05:01:41.743Z,102298.53
2018-01-28T05:04:10.839Z,102295.53
2018-01-28T05:06:39.952Z,102309.62
2018-01-28T05:09:09.054Z,102304.53
2018-01-28T05:11:38.161Z,102302.62
2018-01-28T05:14:07.278Z,102297.53
2018-01-28T05:16:36.371Z,102294.56
2018-01-28T05:19:05.493Z,102293.64
2018-01-28T05:21:34.601Z,102299.19
2018-01-28T05:24:03.706Z,102292.30
2018-01-28T05:26:32.801Z,102288.41
2018-01-28T05:29:02.679Z,102296.98
2018-01-28T05:31:31.776Z,102293.47
2018-01-28T05:34:00.907Z,102298.98
2018-01-28T05:36:29.993Z,102302.70
2018-01-28T05:38:59.090Z,102302.27
2018-01-28T05:41:28.198Z,102299.21
2018-01-28T05:43:57.298Z,102310.76
2018-01-28T05:46:26.402Z,102308.59
2018-01-28T05:48:56.262Z,102319.28
2018-01-28T05:51:25.403Z,102326.55
2018-01-28T05:53:55.257Z,102327.03
2018-01-28T05:56:24.401Z,102335.58
2018-01-28T05:58:54.254Z,102337.30
2018-01-28T06:01:23.347Z,102332.86
2018-01-28T06:03:52.465Z,102323.37
2018-01-28T06:06:21.611Z,102336.72
2018-01-28T06:08:51.488Z,102344.91
2018-01-28T06:11:20.598Z,102346.19
2018-01-28T06:13:49.703Z,102340.98
2018-01-28T06:16:18.787Z,102341.10
2018-01-28T06:18:47.893Z,102342.41
2018-01-28T06:21:17.772Z,102342.78
2018-01-28T06:23:46.856Z,102350.16
2018-01-28T06:26:15.970Z,102348.47
2018-01-28T06:28:45.069Z,102350.59
2018-01-28T06:31:14.181Z,102356.66
2018-01-28T06:33:43.261Z,102341.95
2018-01-28T06:36:12.378Z,102354.73
2018-01-28T06:38:41.507Z,102359.80
2018-01-28T06:41:10.621Z,102356.02
2018-01-28T06:43:39.721Z,102360.74
2018-01-28T06:46:08.823Z,102356.83
2018-01-28T06:48:37.921Z,102362.52
2018-01-28T06:51:07.041Z,102366.38
2018-01-28T06:53:36.163Z,102368.55
2018-01-28T06:56:05.262Z,102365.66
2018-01-28T06:58:34.338Z,102367.83
2018-01-28T07:01:03.453Z,102366.92
2018-01-28T07:03:32.558Z,102369.09
2018-01-28T07:06:01.692Z,102367.12
2018-01-28T07:08:30.805Z,102359.94
2018-01-28T07:10:59.889Z,102360.23
2018-01-28T07:13:28.999Z,102356.42
2018-01-28T07:15:58.101Z,102355.94
2018-01-28T07:18:27.244Z,102365.43
2018-01-28T07:20:56.334Z,102377.44
2018-01-28T07:23:25.456Z,102382.59
2018-01-28T07:25:54.608Z,102390.02
2018-01-28T07:28:24.472Z,102395.05
2018-01-28T07:30:53.564Z,102397.17
2018-01-28T07:33:22.673Z,102401.09
2018-01-28T07:35:51.776Z,102391.67
2018-01-28T07:38:21.658Z,102400.55
2018-01-28T07:40:50.762Z,102400.94
2018-01-28T07:43:19.889Z,102408.20
2018-01-28T07:45:48.978Z,102409.47
2018-01-28T07:48:18.080Z,102419.25
2018-01-28T07:50:48.117Z,102418.02
2018-01-28T07:53:17.199Z,102423.08
2018-01-28T07:55:46.438Z,102427.42
2018-01-28T07:58:15.523Z,102435.15
2018-01-28T08:00:44.634Z,102441.13
2018-01-28T08:03:13.745Z,102439.81
2018-01-28T08:05:42.867Z,102431.69
2018-01-28T08:08:13.029Z,102445.44
2018-01-28T08:11:01.927Z,102439.91
2018-01-28T08:13:31.785Z,102456.19
2018-01-28T08:16:00.873Z,102458.70
2018-01-28T08:18:29.986Z,102463.40
2018-01-28T08:20:59.842Z,102457.82
2018-01-28T08:23:28.946Z,102464.69
2018-01-28T08:25:58.048Z,102463.38
2018-01-28T08:28:32.789Z,102457.02
2018-01-28T08:31:01.894Z,102471.63
2018-01-28T08:33:31.013Z,102464.31
2018-01-28T08:36:00.103Z,102466.03
2018-01-28T08:38:29.980Z,102464.36
2018-01-28T08:40:59.082Z,102467.66
2018-01-28T08:43:28.183Z,102464.85
2018-01-28T08:45:57.286Z,102469.33
2018-01-28T08:48:26.389Z,102465.44
2018-01-28T08:50:55.517Z,102453.27
2018-01-28T08:53:24.626Z,102459.22
2018-01-28T08:55:53.745Z,102458.25
2018-01-28T08:58:22.868Z,102476.50
2018-01-28T09:00:52.017Z,102469.16
2018-01-28T09:03:21.892Z,102490.98
2018-01-28T09:05:51.024Z,102488.84
2018-01-28T09:08:20.131Z,102484.58
2018-01-28T09:10:49.236Z,102492.64
2018-01-28T09:13:18.338Z,102494.39
2018-01-28T09:15:47.476Z,102502.13
2018-01-28T09:18:16.573Z,102510.31
2018-01-28T09:20:45.673Z,102514.77
2018-01-28T09:23:14.801Z,102520.72
2018-01-28T09:25:43.895Z,102525.45
2018-01-28T09:28:13.024Z,102536.53
2018-01-28T09:30:42.897Z,102529.05
2018-01-28T09:33:12.750Z,102545.70
2018-01-28T09:35:41.856Z,102533.56
2018-01-28T09:38:10.979Z,102533.18
2018-01-28T09:40:40.078Z,102537.09
2018-01-28T09:43:09.225Z,102547.26
2018-01-28T09:45:38.350Z,102547.90
2018-01-28T09:48:07.475Z,102546.24
2018-01-28T09:50:36.564Z,102554.36
2018-01-28T09:53:05.671Z,102562.25
2018-01-28T09:55:34.792Z,102569.11
2018-01-28T09:58:03.923Z,102580.56
2018-01-28T10:00:33.797Z,102572.70
2018-01-28T10:03:02.928Z,102583.65
2018-01-28T10:05:32.042Z,102576.09
2018-01-28T10:08:01.138Z,102584.48
2018-01-28T10:10:30.271Z,102586.55
2018-01-28T10:12:59.392Z,102584.13
2018-01-28T10:15:28.500Z,102582.50
2018-01-28T10:17:58.371Z,102589.75
2018-01-28T10:20:27.460Z,102580.89
2018-01-28T10:22:57.376Z,102586.66
2018-01-28T10:25:27.266Z,102585.02
2018-01-28T10:27:56.397Z,102593.17
2018-01-28T10:30:26.254Z,102589.07
2018-01-28T10:32:55.378Z,102593.29
2018-01-28T10:35:24.485Z,102579.93
2018-01-28T10:37:53.672Z,102578.56
2018-01-28T10:40:22.775Z,102577.86
2018-01-28T10:42:52.634Z,102580.59
2018-01-28T10:45:21.796Z,102581.86
2018-01-28T10:47:50.915Z,102587.25
2018-01-28T10:50:20.796Z,102580.54
2018-01-28T10:52:51.478Z,102579.06
2018-01-28T10:55:21.434Z,102571.63
2018-01-28T10:57:50.554Z,102576.54
2018-01-28T11:00:19.675Z,102578.58
2018-01-28T11:02:48.769Z,102579.44
2018-01-28T11:05:17.892Z,102577.05
2018-01-28T11:07:47.000Z,102574.52
2018-01-28T11:10:16.131Z,102574.75
2018-01-28T11:12:45.243Z,102573.06
2018-01-28T11:15:14.394Z,102578.39
2018-01-28T11:17:43.492Z,102573.48
2018-01-28T11:20:13.408Z,102575.28
2018-01-28T11:22:42.593Z,102568.41
2018-01-28T11:25:11.742Z,102579.73
2018-01-28T11:27:41.604Z,102573.35
2018-01-28T11:30:10.734Z,102576.52
2018-01-28T11:32:39.869Z,102573.63
2018-01-28T11:35:08.998Z,102572.44
2018-01-28T11:37:38.874Z,102572.03
2018-01-28T11:40:07.985Z,102572.50
2018-01-28T11:42:37.134Z,102573.65
2018-01-28T11:45:06.999Z,102577.16
2018-01-28T11:47:36.133Z,102584.62
2018-01-28T11:50:05.236Z,102576.28
2018-01-28T11:52:34.332Z,102575.16
2018-01-28T11:55:03.454Z,102578.13
2018-01-28T11:57:32.591Z,102576.30
2018-01-28T12:00:02.568Z,102575.45
2018-01-28T12:02:31.701Z,102569.95
2018-01-28T12:05:00.810Z,102567.23
2018-01-28T12:07:29.951Z,102573.25
2018-01-28T12:09:59.031Z,102572.82
2018-01-28T12:12:28.153Z,102571.80
2018-01-28T12:14:57.263Z,102565.80
2018-01-28T12:17:26.370Z,102564.43
2018-01-28T12:19:55.506Z,102562.78
2018-01-28T12:22:25.389Z,102559.03
2018-01-28T12:24:55.288Z,102548.14
2018-01-28T12:27:24.382Z,102559.20
2018-01-28T12:29:53.505Z,102552.81
2018-01-28T12:32:22.665Z,102549.78
2018-01-28T12:34:51.767Z,102545.09
2018-01-28T12:37:20.877Z,102544.87
2018-01-28T12:39:49.998Z,102537.55
2018-01-28T12:42:19.104Z,102532.54
2018-01-28T12:44:48.984Z,102529.67
2018-01-28T12:47:18.146Z,102525.11
2018-01-28T12:49:48.130Z,102528.84
2018-01-28T12:52:17.246Z,102527.17
2018-01-28T12:54:46.392Z,102534.79
2018-01-28T12:57:16.290Z,102525.62
2018-01-28T12:59:45.404Z,102529.08
2018-01-28T13:02:14.503Z,102522.56
2018-01-28T13:04:43.627Z,102522.30
2018-01-28T13:07:12.747Z,102527.25
2018-01-28T13:09:42.615Z,102523.64
2018-01-28T13:12:11.772Z,102530.71
2018-01-28T13:14:40.860Z,102529.86
2018-01-28T13:17:10.005Z,102534.23
2018-01-28T13:19:39.102Z,102530.61
2018-01-28T13:22:08.243Z,102532.00
2018-01-28T13:24:38.162Z,102530.82
2018-01-28T13:27:08.040Z,102527.91
2018-01-28T13:29:37.903Z,102529.61
2018-01-28T13:32:07.772Z,102529.27
2018-01-28T13:34:36.888Z,102522.02
2018-01-28T13:37:05.989Z,102525.21
2018-01-28T13:39:35.119Z,102523.58
2018-01-28T13:42:04.262Z,102527.92
2018-01-28T13:44:33.376Z,102520.09
2018-01-28T13:47:03.271Z,102520.89
2018-01-28T13:49:32.385Z,102515.37
2018-01-28T13:52:01.476Z,102512.59
2018-01-28T13:54:30.610Z,102517.64
2018-01-28T13:56:59.779Z,102523.19
2018-01-28T13:59:28.882Z,102523.48
2018-01-28T14:01:57.989Z,102520.42
2018-01-28T14:04:27.120Z,102528.09
2018-01-28T14:06:56.215Z,102521.42
2018-01-28T14:09:25.310Z,102528.90
2018-01-28T14:11:54.427Z,102529.36
2018-01-28T14:14:23.530Z,102519.83
2018-01-28T14:16:52.632Z,102527.50
2018-01-28T14:19:21.727Z,102523.63
2018-01-28T14:21:51.616Z,102520.08
2018-01-28T14:24:20.702Z,102525.61
2018-01-28T14:26:49.842Z,102522.74
2018-01-28T14:29:18.930Z,102513.61
2018-01-28T14:31:48.544Z,102518.22
2018-01-28T14:34:17.671Z,102511.87
2018-01-28T14:36:46.838Z,102510.66
2018-01-28T14:39:15.954Z,102517.94
2018-01-28T14:41:45.066Z,102525.09
2018-01-28T14:44:14.197Z,102530.39
2018-01-28T14:46:43.285Z,102526.52
2018-01-28T14:49:12.409Z,102523.44
2018-01-28T14:51:42.630Z,102521.23
2018-01-28T14:54:11.730Z,102523.69
2018-01-28T14:56:40.867Z,102527.47
2018-01-28T14:59:09.951Z,102529.19
2018-01-28T15:01:39.074Z,102520.94
2018-01-28T15:04:08.221Z,102520.88
2018-01-28T15:06:37.384Z,102530.64
2018-01-28T15:09:06.516Z,102531.59
2018-01-28T15:11:35.636Z,102522.69
2018-01-28T15:14:05.551Z,102512.75
2018-01-28T15:16:34.655Z,102514.44
2018-01-28T15:19:03.781Z,102517.45
2018-01-28T15:21:32.877Z,102515.20
2018-01-28T15:24:02.764Z,102511.31
2018-01-28T15:26:31.912Z,102509.54
2018-01-28T15:29:01.024Z,102509.52
2018-01-28T15:31:30.195Z,102508.02
2018-01-28T15:33:59.285Z,102502.89
2018-01-28T15:36:29.168Z,102505.44
2018-01-28T15:38:58.262Z,102509.25
2018-01-28T15:41:28.174Z,102512.06
2018-01-28T15:43:57.263Z,102505.07
2018-01-28T15:46:26.389Z,102513.86
2018-01-28T15:48:55.483Z,102519.48
2018-01-28T15:51:24.609Z,102523.74
2018-01-28T15:53:53.715Z,102530.88
2018-01-28T15:56:22.839Z,102524.20
2018-01-28T15:58:51.926Z,102530.88
2018-01-28T16:01:21.038Z,102534.80
2018-01-28T16:03:50.149Z,102534.80
2018-01-28T16:06:19.258Z,102535.94
2018-01-28T16:08:48.391Z,102533.97
2018-01-28T16:11:17.489Z,102533.13
2018-01-28T16:13:46.621Z,102542.98
2018-01-28T16:16:15.750Z,102536.40
2018-01-28T16:18:44.876Z,102538.71
2018-01-28T16:21:14.786Z,102537.02
2018-01-28T16:23:43.891Z,102540.43
2018-01-28T16:26:12.991Z,102541.45
2018-01-28T16:28:42.114Z,102539.67
2018-01-28T16:31:11.236Z,102534.86
2018-01-28T16:33:41.097Z,102529.30
2018-01-28T16:36:10.222Z,102527.12
2018-01-28T16:38:39.316Z,102532.92
2018-01-28T16:41:08.466Z,102530.49
2018-01-28T16:43:37.581Z,102529.36
2018-01-28T16:46:06.709Z,102533.29
2018-01-28T16:48:36.600Z,102530.69
2018-01-28T16:51:05.753Z,102537.56
2018-01-28T16:53:34.861Z,102535.23
2018-01-28T16:56:04.001Z,102528.70
2018-01-28T16:58:33.119Z,102526.70
2018-01-28T17:01:02.224Z,102533.11
2018-01-28T17:03:31.388Z,102534.34
2018-01-28T17:06:01.286Z,102540.70
2018-01-28T17:08:30.440Z,102541.84
2018-01-28T17:11:00.321Z,102545.89
2018-01-28T17:13:29.449Z,102545.00
2018-01-28T17:15:58.546Z,102545.97
2018-01-28T17:18:27.678Z,102541.65
2018-01-28T17:20:57.542Z,102543.09
2018-01-28T17:23:26.666Z,102536.22
2018-01-28T17:25:55.763Z,102543.13
2018-01-28T17:28:24.864Z,102545.80
2018-01-28T17:30:53.966Z,102539.84
2018-01-28T17:33:23.086Z,102545.03
2018-01-28T17:35:52.203Z,102542.73
2018-01-28T17:38:21.371Z,102542.84
2018-01-28T17:40:51.242Z,102546.17
2018-01-28T17:43:20.353Z,102542.67
2018-01-28T17:45:49.490Z,102553.88
2018-01-28T17:48:18.598Z,102560.55
2018-01-28T17:50:47.750Z,102560.08
2018-01-28T17:53:16.842Z,102560.55
2018-01-28T17:55:45.999Z,102554.84
2018-01-28T17:58:15.090Z,102545.78
2018-01-28T18:00:44.214Z,102539.08
2018-01-28T18:03:13.334Z,102540.92
2018-01-28T18:05:42.477Z,102543.68
2018-01-28T18:08:12.361Z,102539.72
2018-01-28T18:10:41.488Z,102540.98
2018-01-28T18:13:10.584Z,102543.65
2018-01-28T18:15:39.687Z,102541.07
2018-01-28T18:18:08.841Z,102547.52
2018-01-28T18:20:37.904Z,102552.53
2018-01-28T18:23:07.010Z,102554.70
2018-01-28T18:25:36.124Z,102564.38
2018-01-28T18:28:06.028Z,102570.86
2018-01-28T18:30:35.131Z,102568.65
2018-01-28T18:33:04.252Z,102572.05
2018-01-28T18:35:33.413Z,102565.19
2018-01-28T18:38:02.524Z,102561.80
2018-01-28T18:40:31.663Z,102566.38
2018-01-28T18:43:00.778Z,102546.09
2018-01-28T18:45:29.882Z,102556.86
2018-01-28T18:47:58.996Z,102552.56
2018-01-28T18:50:28.076Z,102561.65
2018-01-28T18:52:58.003Z,102562.88
2018-01-28T18:55:27.129Z,102557.17
2018-01-28T18:57:57.063Z,102566.20
2018-01-28T19:00:26.201Z,102562.27
2018-01-28T19:02:55.382Z,102556.28
2018-01-28T19:05:24.458Z,102554.50
2018-01-28T19:07:54.344Z,102556.28
2018-01-28T19:10:23.462Z,102567.42
2018-01-28T19:12:52.580Z,102566.57
2018-01-28T19:15:21.721Z,102559.63
2018-01-28T19:17:50.841Z,102566.91
2018-01-28T19:20:20.792Z,102559.60
2018-01-28T19:22:49.926Z,102553.55
2018-01-28T19:25:19.112Z,102554.38
2018-01-28T19:27:48.265Z,102548.34
2018-01-28T19:30:17.384Z,102543.67
2018-01-28T19:32:46.528Z,102543.70
2018-01-28T19:35:16.405Z,102542.44
2018-01-28T19:37:45.514Z,102541.21
2018-01-28T19:40:14.673Z,102542.95
2018-01-28T19:42:43.770Z,102547.23
2018-01-28T19:45:13.642Z,102551.09
2018-01-28T19:47:42.765Z,102545.05
2018-01-28T19:50:11.919Z,102548.45
2018-01-28T19:52:41.797Z,102551.89
2018-01-28T19:55:10.967Z,102557.55
2018-01-28T19:57:40.840Z,102550.58
2018-01-28T20:00:09.987Z,102548.86
2018-01-28T20:02:39.121Z,102552.20
2018-01-28T20:05:08.228Z,102544.59
2018-01-28T20:07:37.356Z,102542.72
2018-01-28T20:10:06.501Z,102550.58
2018-01-28T20:12:35.636Z,102540.34
2018-01-28T20:15:05.518Z,102541.64
2018-01-28T20:17:34.643Z,102538.55
2018-01-28T20:20:03.737Z,102532.03
2018-01-28T20:22:32.882Z,102536.73
2018-01-28T20:25:02.798Z,102540.26
2018-01-28T20:27:31.919Z,102525.73
2018-01-28T20:30:01.775Z,102529.48
2018-01-28T20:32:30.894Z,102525.67
2018-01-28T20:35:00.041Z,102521.81
2018-01-28T20:37:29.169Z,102524.02
2018-01-28T20:39:59.068Z,102528.34
2018-01-28T20:42:28.200Z,102518.09
2018-01-28T20:44:57.334Z,102528.01
2018-01-28T20:47:27.224Z,102528.03
2018-01-28T20:49:56.343Z,102520.61
2018-01-28T20:52:26.208Z,102525.37
2018-01-28T20:54:55.363Z,102524.05
2018-01-28T20:57:24.480Z,102517.84
2018-01-28T20:59:53.612Z,102513.94
2018-01-28T21:02:23.471Z,102516.22
2018-01-28T21:04:52.617Z,102526.92
2018-01-28T21:07:21.772Z,102527.91
2018-01-28T21:09:51.716Z,102525.39
2018-01-28T21:12:20.816Z,102515.11
2018-01-28T21:14:50.741Z,102525.79
2018-01-28T21:17:19.858Z,102525.39
2018-01-28T21:19:48.974Z,102519.77
2018-01-28T21:22:18.071Z,102519.74
2018-01-28T21:24:47.203Z,102523.73
2018-01-28T21:27:16.332Z,102525.94
2018-01-28T21:29:45.439Z,102512.68
2018-01-28T21:32:14.577Z,102504.58
2018-01-28T21:34:43.713Z,102502.02
2018-01-28T21:37:12.829Z,102497.73
2018-01-28T21:39:41.937Z,102501.23
2018-01-28T21:42:11.054Z,102498.19
2018-01-28T21:44:40.179Z,102492.23
2018-01-28T21:47:09.321Z,102495.33
2018-01-28T21:49:38.405Z,102495.73
2018-01-28T21:52:07.563Z,102497.08
2018-01-28T21:54:37.412Z,102492.84
2018-01-28T21:57:06.511Z,102493.70
2018-01-28T21:59:35.629Z,102490.27
2018-01-28T22:02:04.735Z,102488.15
2018-01-28T22:04:33.849Z,102483.88
2018-01-28T22:07:02.984Z,102486.92
2018-01-28T22:09:32.098Z,102495.58
2018-01-28T22:12:01.232Z,102480.97
2018-01-28T22:14:30.353Z,102494.73
2018-01-28T22:16:59.455Z,102481.48
2018-01-28T22:19:28.560Z,102474.61
2018-01-28T22:21:57.669Z,102477.19
2018-01-28T22:24:26.783Z,102476.42
2018-01-28T22:26:56.659Z,102480.66
2018-01-28T22:29:25.823Z,102481.55
2018-01-28T22:31:54.918Z,102483.69
2018-01-28T22:34:24.002Z,102480.53
2018-01-28T22:36:53.102Z,102484.40
2018-01-28T22:39:22.230Z,102485.69
2018-01-28T22:41:51.319Z,102480.50
2018-01-28T22:44:20.417Z,102482.28
2018-01-28T22:46:49.563Z,102480.53
2018-01-28T22:49:18.675Z,102490.84
2018-01-28T22:51:47.769Z,102489.73
2018-01-28T22:54:16.912Z,102492.31
2018-01-28T22:56:46.009Z,102488.91
2018-01-28T22:59:15.125Z,102491.05
2018-01-28T23:01:44.216Z,102492.50
2018-01-28T23:04:13.310Z,102488.69
2018-01-28T23:06:42.413Z,102488.31
2018-01-28T23:09:12.274Z,102497.70
2018-01-28T23:11:42.142Z,102486.14
2018-01-28T23:14:11.303Z,102489.48
2018-01-28T23:16:40.386Z,102500.66
2018-01-28T23:19:09.490Z,102490.38
2018-01-28T23:21:38.602Z,102490.83
2018-01-28T23:24:07.679Z,102487.94
2018-01-28T23:26:36.809Z,102493.07
2018-01-28T23:29:05.981Z,102487.14
2018-01-28T23:31:35.091Z,102486.48
2018-01-28T23:34:04.183Z,102488.17
2018-01-28T23:36:33.288Z,102480.41
2018-01-28T23:39:03.139Z,102481.20
2018-01-28T23:41:32.251Z,102484.49
2018-01-28T23:44:01.338Z,102483.17
2018-01-28T23:46:30.444Z,102479.39
2018-01-28T23:49:00.328Z,102481.02
2018-01-28T23:51:30.171Z,102476.39
2018-01-28T23:53:59.288Z,102479.73
2018-01-28T23:56:28.386Z,102477.62
2018-01-28T23:58:57.494Z,102475.90
